createdAt,value
2018-09-02T00:00:56.854Z,14.30
2018-09-02T00:06:26.636Z,16.97
2018-09-02T00:11:55.939Z,15.65
2018-09-02T00:17:25.272Z,16.45
2018-09-02T00:22:54.595Z,18.42
2018-09-02T00:28:23.847Z,13.72
2018-09-02T00:33:53.161Z,14.28
2018-09-02T00:39:22.367Z,14.38
2018-09-02T00:44:51.546Z,12.93
2018-09-02T00:50:20.834Z,15.00
2018-09-02T00:55:50.121Z,15.80
2018-09-02T01:01:19.867Z,14.93
2018-09-02T01:06:49.114Z,15.60
2018-09-02T01:12:18.420Z,14.68
2018-09-02T01:17:47.711Z,18.57
2018-09-02T01:23:16.947Z,18.67
2018-09-02T01:28:46.199Z,16.45
2018-09-02T01:34:15.420Z,16.42
2018-09-02T01:39:44.679Z,15.58
2018-09-02T01:45:13.966Z,13.88
2018-09-02T01:50:43.208Z,15.88
2018-09-02T01:56:12.435Z,13.75
2018-09-02T02:01:43.795Z,13.95
2018-09-02T02:07:13.739Z,14.83
2018-09-02T02:12:43.054Z,14.13
2018-09-02T02:18:12.352Z,14.45
2018-09-02T02:23:41.620Z,14.98
2018-09-02T02:29:10.825Z,14.93
2018-09-02T02:34:40.062Z,13.22
2018-09-02T02:40:09.419Z,14.63
2018-09-02T02:45:38.658Z,16.00
2018-09-02T02:51:07.915Z,14.53
2018-09-02T02:56:37.198Z,15.15
2018-09-02T03:02:06.452Z,18.35
2018-09-02T03:07:35.699Z,16.65
2018-09-02T03:13:04.998Z,13.38
2018-09-02T03:18:34.204Z,16.27
2018-09-02T03:24:03.523Z,15.18
2018-09-02T03:29:32.802Z,13.75
2018-09-02T03:35:02.123Z,17.50
2018-09-02T03:40:31.390Z,15.48
2018-09-02T03:46:00.741Z,15.43
2018-09-02T03:51:30.175Z,21.40
2018-09-02T03:56:59.503Z,15.08
2018-09-02T04:02:28.824Z,16.27
2018-09-02T04:07:58.172Z,15.28
2018-09-02T04:13:27.611Z,20.27
2018-09-02T04:18:56.951Z,15.53
2018-09-02T04:24:26.282Z,14.40
2018-09-02T04:29:55.680Z,13.03
2018-09-02T04:35:25.515Z,18.95
2018-09-02T04:40:54.764Z,20.02
2018-09-02T04:46:24.102Z,17.35
2018-09-02T04:51:53.383Z,16.37
2018-09-02T04:57:22.616Z,16.05
2018-09-02T05:02:51.934Z,15.00
2018-09-02T05:08:21.139Z,15.63
2018-09-02T05:13:50.359Z,15.60
2018-09-02T05:19:19.640Z,15.58
2018-09-02T05:24:48.884Z,17.92
2018-09-02T05:30:18.166Z,18.17
2018-09-02T05:35:47.371Z,16.87
2018-09-02T05:41:16.693Z,16.42
2018-09-02T05:46:45.883Z,17.02
2018-09-02T05:52:15.234Z,15.93
2018-09-02T05:57:44.464Z,16.65
2018-09-02T06:03:13.644Z,16.42
2018-09-02T06:08:42.851Z,15.90
2018-09-02T06:14:12.118Z,15.93
2018-09-02T06:19:41.352Z,15.95
2018-09-02T06:25:10.583Z,14.70
2018-09-02T06:30:39.845Z,15.60
2018-09-02T06:36:09.100Z,17.17
2018-09-02T06:41:38.306Z,11.90
2018-09-02T06:47:07.535Z,12.58
2018-09-02T06:52:36.876Z,14.30
2018-09-02T06:58:06.254Z,8.48
2018-09-02T07:03:35.499Z,10.00
2018-09-02T07:09:05.245Z,8.75
2018-09-02T07:14:34.435Z,11.03
2018-09-02T07:20:03.735Z,11.80
2018-09-02T07:25:33.154Z,12.35
2018-09-02T07:31:02.413Z,11.57
2018-09-02T07:36:31.655Z,10.80
2018-09-02T07:42:01.005Z,10.58
2018-09-02T07:47:30.497Z,11.05
2018-09-02T07:52:59.872Z,13.28
2018-09-02T07:58:29.175Z,10.93
2018-09-02T08:03:58.508Z,9.30
2018-09-02T08:09:27.919Z,9.33
2018-09-02T08:14:57.316Z,8.63
2018-09-02T08:20:26.686Z,9.48
2018-09-02T08:25:56.133Z,7.47
2018-09-02T08:31:25.417Z,7.37
2018-09-02T08:36:54.884Z,10.98
2018-09-02T08:42:24.197Z,8.10
2018-09-02T08:47:53.624Z,8.68
2018-09-02T08:53:22.889Z,9.58
2018-09-02T08:58:52.425Z,9.55
2018-09-02T09:04:21.684Z,11.22
2018-09-02T09:09:50.920Z,8.65
2018-09-02T09:15:20.157Z,11.22
2018-09-02T09:20:49.513Z,9.45
2018-09-02T09:26:19.039Z,7.37
2018-09-02T09:31:48.293Z,8.15
2018-09-02T09:37:17.533Z,8.98
2018-09-02T09:42:46.755Z,8.25
2018-09-02T09:48:16.019Z,6.87
2018-09-02T09:53:45.267Z,9.45
2018-09-02T09:59:14.484Z,7.95
2018-09-02T10:04:43.734Z,7.78
2018-09-02T10:10:13.065Z,9.10
2018-09-02T10:15:42.297Z,8.38
2018-09-02T10:21:11.532Z,8.75
2018-09-02T10:26:40.761Z,7.58
2018-09-02T10:32:09.948Z,5.30
2018-09-02T10:37:39.225Z,6.55
2018-09-02T10:43:08.452Z,5.90
2018-09-02T10:48:37.679Z,7.08
2018-09-02T10:54:07.900Z,6.28
2018-09-02T10:59:37.088Z,7.15
2018-09-02T11:05:07.701Z,5.62
2018-09-02T11:10:37.011Z,6.15
2018-09-02T11:16:06.231Z,5.70
2018-09-02T11:21:35.486Z,5.20
2018-09-02T11:27:05.142Z,4.50
2018-09-02T11:32:34.898Z,5.12
2018-09-02T11:38:04.236Z,7.25
2018-09-02T11:43:33.523Z,6.12
2018-09-02T11:49:02.859Z,8.95
2018-09-02T11:54:32.127Z,8.40
2018-09-02T12:00:01.503Z,4.42
2018-09-02T12:05:30.766Z,5.12
2018-09-02T12:11:00.116Z,5.25
2018-09-02T12:16:29.508Z,6.58
2018-09-02T12:21:58.832Z,5.10
2018-09-02T12:27:28.268Z,5.90
2018-09-02T12:32:57.604Z,9.98
2018-09-02T12:38:26.945Z,6.70
2018-09-02T12:43:56.379Z,6.42
2018-09-02T12:49:25.896Z,5.10
2018-09-02T12:54:55.586Z,6.47
2018-09-02T13:00:25.075Z,5.45
2018-09-02T13:05:54.515Z,6.28
2018-09-02T13:11:23.815Z,6.67
2018-09-02T13:16:53.146Z,6.30
2018-09-02T13:22:23.193Z,7.12
2018-09-02T13:27:52.448Z,5.15
2018-09-02T13:33:21.732Z,4.35
2018-09-02T13:38:51.541Z,4.15
2018-09-02T13:44:20.712Z,3.70
2018-09-02T13:49:49.998Z,4.90
2018-09-02T13:55:19.191Z,5.15
2018-09-02T14:00:48.378Z,6.58
2018-09-02T14:06:17.599Z,5.17
2018-09-02T14:11:46.797Z,3.92
2018-09-02T14:17:16.009Z,3.55
2018-09-02T14:22:45.223Z,4.47
2018-09-02T14:28:14.454Z,4.37
2018-09-02T14:33:43.736Z,3.62
2018-09-02T14:39:14.201Z,4.25
2018-09-02T14:44:43.715Z,4.15
2018-09-02T14:50:12.979Z,6.30
2018-09-02T14:55:42.543Z,4.08
2018-09-02T15:01:11.925Z,5.08
2018-09-02T15:06:41.277Z,3.85
2018-09-02T15:12:10.563Z,4.65
2018-09-02T15:17:39.840Z,6.60
2018-09-02T15:23:11.135Z,4.62
2018-09-02T15:28:40.731Z,6.78
2018-09-02T15:34:10.703Z,6.08
2018-09-02T15:39:40.180Z,6.70
2018-09-02T15:45:17.191Z,5.65
2018-09-02T15:50:48.914Z,5.53
2018-09-02T15:56:20.540Z,5.78
2018-09-02T16:01:50.111Z,7.28
2018-09-02T16:07:19.595Z,7.62
2018-09-02T16:12:50.159Z,7.50
2018-09-02T16:18:19.570Z,6.20
2018-09-02T16:23:49.956Z,7.30
2018-09-02T16:29:19.290Z,8.68
2018-09-02T16:34:48.660Z,9.20
2018-09-02T16:40:18.150Z,9.20
2018-09-02T16:45:47.476Z,6.62
2018-09-02T16:51:16.923Z,7.58
2018-09-02T16:56:46.126Z,11.12
2018-09-02T17:02:15.512Z,8.98
2018-09-02T17:07:44.760Z,11.65
2018-09-02T17:13:17.888Z,11.40
2018-09-02T17:18:54.130Z,11.30
2018-09-02T17:24:29.000Z,13.75
2018-09-02T17:29:58.266Z,11.88
2018-09-02T17:35:28.357Z,13.60
2018-09-02T17:40:57.944Z,11.88
2018-09-02T17:46:27.403Z,12.85
2018-09-02T17:51:57.373Z,13.70
2018-09-02T17:57:26.908Z,15.00
2018-09-02T18:02:56.490Z,13.68
2018-09-02T18:08:26.013Z,13.00
2018-09-02T18:13:55.615Z,14.38
2018-09-02T18:19:25.311Z,16.02
2018-09-02T18:24:55.138Z,15.05
2018-09-02T18:30:24.828Z,13.08
2018-09-02T18:35:54.180Z,14.25
2018-09-02T18:41:23.518Z,14.33
2018-09-02T18:46:52.869Z,15.53
2018-09-02T18:52:22.233Z,14.95
2018-09-02T18:57:51.549Z,15.32
2018-09-02T19:03:20.899Z,15.68
2018-09-02T19:08:51.334Z,14.87
2018-09-02T19:14:20.949Z,16.80
2018-09-02T19:19:51.603Z,15.72
2018-09-02T19:25:21.009Z,16.52
2018-09-02T19:30:51.445Z,16.67
2018-09-02T19:36:21.132Z,13.88
2018-09-02T19:41:50.495Z,17.23
2018-09-02T19:47:20.552Z,16.10
2018-09-02T19:52:49.961Z,17.02
2018-09-02T19:58:19.648Z,18.70
2018-09-02T20:03:49.580Z,17.07
2018-09-02T20:09:19.142Z,19.48
2018-09-02T20:14:49.090Z,17.65
2018-09-02T20:20:20.694Z,15.93
2018-09-02T20:25:51.597Z,18.55
2018-09-02T20:31:24.812Z,18.23
2018-09-02T20:36:54.191Z,20.00
2018-09-02T20:42:23.856Z,22.82
2018-09-02T20:47:53.210Z,20.43
2018-09-02T20:53:22.659Z,18.48
2018-09-02T20:58:53.147Z,21.00
2018-09-02T21:04:22.629Z,19.25
2018-09-02T21:09:54.053Z,19.12
2018-09-02T21:15:23.372Z,18.23
2018-09-02T21:20:52.784Z,16.37
2018-09-02T21:26:22.061Z,16.32
2018-09-02T21:31:51.583Z,16.95
2018-09-02T21:37:20.819Z,19.50
2018-09-02T21:42:50.216Z,18.02
2018-09-02T21:48:19.447Z,19.40
2018-09-02T21:53:48.658Z,19.35
2018-09-02T21:59:17.895Z,19.65
2018-09-02T22:04:47.173Z,18.35
2018-09-02T22:10:17.436Z,19.82
2018-09-02T22:15:46.627Z,20.12
2018-09-02T22:21:15.878Z,22.27
2018-09-02T22:26:45.159Z,22.13
2018-09-02T22:32:14.375Z,23.12
2018-09-02T22:37:43.643Z,22.05
2018-09-02T22:43:12.838Z,20.12
2018-09-02T22:48:42.135Z,23.45
2018-09-02T22:54:11.375Z,24.63
2018-09-02T22:59:40.994Z,23.60
2018-09-02T23:05:11.331Z,22.13
2018-09-02T23:10:40.575Z,24.92
2018-09-02T23:16:10.803Z,23.27
2018-09-02T23:21:39.993Z,26.70
2018-09-02T23:27:09.324Z,25.32
2018-09-02T23:32:38.483Z,25.85
2018-09-02T23:38:08.742Z,25.92
2018-09-02T23:43:38.256Z,21.62
2018-09-02T23:49:07.481Z,24.57
2018-09-02T23:54:36.685Z,24.35
